Terminal Aerodrome Forecast
Issued by NWS Wilmington, OH

Current Version | Previous Version | Graphics & Text | Print | Product List | Glossary On
Versions: 1 2 3 4 5 6 7 8 9 10 11 12 13 14 15 16 17 18 19 20 21 22
000
FTUS41 KILN 232000 AAB
TAFILN
TAF AMD
KILN 232001Z 2320/2418 31010KT P6SM SCT110
     FM232100 32010KT P6SM BKN110
     FM240700 02008KT P6SM SCT100
     FM241400 02009G15KT P6SM SCT035
     FM241600 02009G15KT P6SM BKN035=

USA.gov is the U.S. government's official web portal to all federal, state and local government web resources and services.